sensor_id;sensor_type;location;lat;lon;timestamp;temperature;humidity
8539;DHT22;4307;53.868;11.680;2024-03-22T00:02:14;8.30;99.90
8539;DHT22;4307;53.868;11.680;2024-03-22T00:04:40;8.30;99.90
8539;DHT22;4307;53.868;11.680;2024-03-22T00:07:06;8.30;99.90
8539;DHT22;4307;53.868;11.680;2024-03-22T00:09:32;8.30;99.90
8539;DHT22;4307;53.868;11.680;2024-03-22T00:11:59;8.30;99.90
8539;DHT22;4307;53.868;11.680;2024-03-22T00:14:25;8.30;99.90
8539;DHT22;4307;53.868;11.680;2024-03-22T00:16:52;8.30;99.90
8539;DHT22;4307;53.868;11.680;2024-03-22T00:19:19;8.30;99.90
8539;DHT22;4307;53.868;11.680;2024-03-22T00:21:45;8.30;99.90
8539;DHT22;4307;53.868;11.680;2024-03-22T00:24:11;8.30;99.90
8539;DHT22;4307;53.868;11.680;2024-03-22T00:26:37;8.30;99.90
8539;DHT22;4307;53.868;11.680;2024-03-22T00:29:04;8.30;99.90
8539;DHT22;4307;53.868;11.680;2024-03-22T00:31:30;8.30;99.90
8539;DHT22;4307;53.868;11.680;2024-03-22T00:33:58;8.30;99.90
8539;DHT22;4307;53.868;11.680;2024-03-22T00:36:23;8.20;99.90
8539;DHT22;4307;53.868;11.680;2024-03-22T00:38:50;8.20;99.90
8539;DHT22;4307;53.868;11.680;2024-03-22T00:41:16;8.30;99.90
8539;DHT22;4307;53.868;11.680;2024-03-22T00:43:42;8.30;99.90
8539;DHT22;4307;53.868;11.680;2024-03-22T00:46:08;8.30;99.90
8539;DHT22;4307;53.868;11.680;2024-03-22T00:48:35;8.30;99.90
8539;DHT22;4307;53.868;11.680;2024-03-22T00:51:02;8.30;99.90
8539;DHT22;4307;53.868;11.680;2024-03-22T00:53:29;8.30;99.90
8539;DHT22;4307;53.868;11.680;2024-03-22T00:55:55;8.30;99.90
8539;DHT22;4307;53.868;11.680;2024-03-22T00:58:25;8.30;99.90
8539;DHT22;4307;53.868;11.680;2024-03-22T01:00:51;8.30;99.90
8539;DHT22;4307;53.868;11.680;2024-03-22T01:03:18;8.30;99.90
8539;DHT22;4307;53.868;11.680;2024-03-22T01:05:43;8.30;99.90
8539;DHT22;4307;53.868;11.680;2024-03-22T01:08:11;8.30;99.90
8539;DHT22;4307;53.868;11.680;2024-03-22T01:10:37;8.30;99.90
8539;DHT22;4307;53.868;11.680;2024-03-22T01:13:04;8.30;99.90
8539;DHT22;4307;53.868;11.680;2024-03-22T01:15:29;8.30;99.90
8539;DHT22;4307;53.868;11.680;2024-03-22T01:17:56;8.30;99.90
8539;DHT22;4307;53.868;11.680;2024-03-22T01:20:22;8.30;99.90
8539;DHT22;4307;53.868;11.680;2024-03-22T01:22:48;8.40;99.90
8539;DHT22;4307;53.868;11.680;2024-03-22T01:25:16;8.40;99.90
8539;DHT22;4307;53.868;11.680;2024-03-22T01:27:42;8.40;99.90
8539;DHT22;4307;53.868;11.680;2024-03-22T01:30:09;8.40;99.90
8539;DHT22;4307;53.868;11.680;2024-03-22T01:32:36;8.40;99.90
8539;DHT22;4307;53.868;11.680;2024-03-22T01:35:02;8.40;99.90
8539;DHT22;4307;53.868;11.680;2024-03-22T01:37:29;8.40;99.90
8539;DHT22;4307;53.868;11.680;2024-03-22T01:39:55;8.40;99.90
8539;DHT22;4307;53.868;11.680;2024-03-22T01:42:23;8.50;99.90
8539;DHT22;4307;53.868;11.680;2024-03-22T01:44:49;8.50;99.90
8539;DHT22;4307;53.868;11.680;2024-03-22T01:47:16;8.50;99.90
8539;DHT22;4307;53.868;11.680;2024-03-22T01:49:42;8.50;99.90
8539;DHT22;4307;53.868;11.680;2024-03-22T01:52:09;8.50;99.90
8539;DHT22;4307;53.868;11.680;2024-03-22T01:54:34;8.50;99.90
8539;DHT22;4307;53.868;11.680;2024-03-22T01:57:01;8.50;99.90
8539;DHT22;4307;53.868;11.680;2024-03-22T01:59:30;8.50;99.90
8539;DHT22;4307;53.868;11.680;2024-03-22T02:01:57;8.60;99.90
8539;DHT22;4307;53.868;11.680;2024-03-22T02:04:23;8.60;99.90
8539;DHT22;4307;53.868;11.680;2024-03-22T02:06:50;8.60;99.90
8539;DHT22;4307;53.868;11.680;2024-03-22T02:09:15;8.60;99.90
8539;DHT22;4307;53.868;11.680;2024-03-22T02:11:42;8.60;99.90
8539;DHT22;4307;53.868;11.680;2024-03-22T02:14:08;8.60;99.90
8539;DHT22;4307;53.868;11.680;2024-03-22T02:16:36;8.60;99.90
8539;DHT22;4307;53.868;11.680;2024-03-22T02:19:02;8.60;99.90
8539;DHT22;4307;53.868;11.680;2024-03-22T02:21:28;8.60;99.90
8539;DHT22;4307;53.868;11.680;2024-03-22T02:23:55;8.70;99.90
8539;DHT22;4307;53.868;11.680;2024-03-22T02:26:22;8.70;99.90
8539;DHT22;4307;53.868;11.680;2024-03-22T02:28:48;8.70;99.90
8539;DHT22;4307;53.868;11.680;2024-03-22T02:31:14;8.70;99.90
8539;DHT22;4307;53.868;11.680;2024-03-22T02:33:40;8.70;99.90
8539;DHT22;4307;53.868;11.680;2024-03-22T02:36:07;8.70;99.90
8539;DHT22;4307;53.868;11.680;2024-03-22T02:38:32;8.70;99.90
8539;DHT22;4307;53.868;11.680;2024-03-22T02:41:00;8.70;99.90
8539;DHT22;4307;53.868;11.680;2024-03-22T02:43:26;8.80;99.90
8539;DHT22;4307;53.868;11.680;2024-03-22T02:45:53;8.80;99.90
8539;DHT22;4307;53.868;11.680;2024-03-22T02:48:18;8.80;99.90
8539;DHT22;4307;53.868;11.680;2024-03-22T02:50:45;8.80;99.90
8539;DHT22;4307;53.868;11.680;2024-03-22T02:53:11;8.80;99.90
8539;DHT22;4307;53.868;11.680;2024-03-22T02:55:37;8.80;99.90
8539;DHT22;4307;53.868;11.680;2024-03-22T02:58:05;8.80;99.90
8539;DHT22;4307;53.868;11.680;2024-03-22T03:00:35;8.80;99.90
8539;DHT22;4307;53.868;11.680;2024-03-22T03:03:01;8.80;99.90
8539;DHT22;4307;53.868;11.680;2024-03-22T03:05:27;8.80;99.90
8539;DHT22;4307;53.868;11.680;2024-03-22T03:07:53;8.80;99.90
8539;DHT22;4307;53.868;11.680;2024-03-22T03:10:20;8.80;99.90
8539;DHT22;4307;53.868;11.680;2024-03-22T03:12:46;8.80;99.90
8539;DHT22;4307;53.868;11.680;2024-03-22T03:15:15;8.80;99.90
8539;DHT22;4307;53.868;11.680;2024-03-22T03:17:41;8.80;99.90
8539;DHT22;4307;53.868;11.680;2024-03-22T03:20:09;8.80;99.90
8539;DHT22;4307;53.868;11.680;2024-03-22T03:22:38;8.80;99.90
8539;DHT22;4307;53.868;11.680;2024-03-22T03:25:06;8.70;99.90
8539;DHT22;4307;53.868;11.680;2024-03-22T03:27:32;8.70;99.90
8539;DHT22;4307;53.868;11.680;2024-03-22T03:29:58;8.70;99.90
8539;DHT22;4307;53.868;11.680;2024-03-22T03:32:25;8.80;99.90
8539;DHT22;4307;53.868;11.680;2024-03-22T03:34:52;8.80;99.90
8539;DHT22;4307;53.868;11.680;2024-03-22T03:37:18;8.80;99.90
8539;DHT22;4307;53.868;11.680;2024-03-22T03:39:44;8.80;99.90
8539;DHT22;4307;53.868;11.680;2024-03-22T03:42:10;8.80;99.90
8539;DHT22;4307;53.868;11.680;2024-03-22T03:44:37;8.80;99.90
8539;DHT22;4307;53.868;11.680;2024-03-22T03:47:03;8.80;99.90
8539;DHT22;4307;53.868;11.680;2024-03-22T03:49:31;8.80;99.90
8539;DHT22;4307;53.868;11.680;2024-03-22T03:51:57;8.80;99.90
8539;DHT22;4307;53.868;11.680;2024-03-22T03:54:24;8.70;99.90
8539;DHT22;4307;53.868;11.680;2024-03-22T03:56:49;8.70;99.90
8539;DHT22;4307;53.868;11.680;2024-03-22T03:59:16;8.70;99.90
8539;DHT22;4307;53.868;11.680;2024-03-22T04:01:41;8.60;99.90
8539;DHT22;4307;53.868;11.680;2024-03-22T04:04:08;8.60;99.90
8539;DHT22;4307;53.868;11.680;2024-03-22T04:06:35;8.60;99.90
8539;DHT22;4307;53.868;11.680;2024-03-22T04:09:02;8.60;99.90
8539;DHT22;4307;53.868;11.680;2024-03-22T04:11:28;8.60;99.90
8539;DHT22;4307;53.868;11.680;2024-03-22T04:13:55;8.60;99.90
8539;DHT22;4307;53.868;11.680;2024-03-22T04:16:20;8.60;99.90
8539;DHT22;4307;53.868;11.680;2024-03-22T04:18:47;8.60;99.90
8539;DHT22;4307;53.868;11.680;2024-03-22T04:21:13;8.60;99.90
8539;DHT22;4307;53.868;11.680;2024-03-22T04:23:41;8.60;99.90
8539;DHT22;4307;53.868;11.680;2024-03-22T04:26:06;8.60;99.90
8539;DHT22;4307;53.868;11.680;2024-03-22T04:28:33;8.60;99.90
8539;DHT22;4307;53.868;11.680;2024-03-22T04:31:00;8.70;99.90
8539;DHT22;4307;53.868;11.680;2024-03-22T04:33:27;8.70;99.90
8539;DHT22;4307;53.868;11.680;2024-03-22T04:35:54;8.70;99.90
8539;DHT22;4307;53.868;11.680;2024-03-22T04:38:21;8.70;99.90
8539;DHT22;4307;53.868;11.680;2024-03-22T04:40:49;8.70;99.90
8539;DHT22;4307;53.868;11.680;2024-03-22T04:43:16;8.70;99.90
8539;DHT22;4307;53.868;11.680;2024-03-22T04:45:42;8.80;99.90
8539;DHT22;4307;53.868;11.680;2024-03-22T04:48:09;8.80;99.90
8539;DHT22;4307;53.868;11.680;2024-03-22T04:50:35;8.80;99.90
8539;DHT22;4307;53.868;11.680;2024-03-22T04:53:02;8.90;99.90
8539;DHT22;4307;53.868;11.680;2024-03-22T04:55:28;8.90;99.90
8539;DHT22;4307;53.868;11.680;2024-03-22T04:57:56;8.90;99.90
8539;DHT22;4307;53.868;11.680;2024-03-22T05:00:21;8.90;99.90
8539;DHT22;4307;53.868;11.680;2024-03-22T05:02:50;8.90;99.90
8539;DHT22;4307;53.868;11.680;2024-03-22T05:05:16;9.00;99.90
8539;DHT22;4307;53.868;11.680;2024-03-22T05:07:42;9.00;99.90
8539;DHT22;4307;53.868;11.680;2024-03-22T05:10:09;9.00;99.90
8539;DHT22;4307;53.868;11.680;2024-03-22T05:12:35;9.00;99.90
8539;DHT22;4307;53.868;11.680;2024-03-22T05:15:04;9.00;99.90
8539;DHT22;4307;53.868;11.680;2024-03-22T05:17:31;9.00;99.90
8539;DHT22;4307;53.868;11.680;2024-03-22T05:19:57;9.00;99.90
8539;DHT22;4307;53.868;11.680;2024-03-22T05:22:24;9.10;99.90
8539;DHT22;4307;53.868;11.680;2024-03-22T05:24:50;9.10;99.90
8539;DHT22;4307;53.868;11.680;2024-03-22T05:27:17;9.10;99.90
8539;DHT22;4307;53.868;11.680;2024-03-22T05:29:42;9.10;99.90
8539;DHT22;4307;53.868;11.680;2024-03-22T05:32:10;9.10;99.90
8539;DHT22;4307;53.868;11.680;2024-03-22T05:34:36;9.20;99.90
8539;DHT22;4307;53.868;11.680;2024-03-22T05:37:03;9.20;99.90
8539;DHT22;4307;53.868;11.680;2024-03-22T05:39:29;9.20;99.90
8539;DHT22;4307;53.868;11.680;2024-03-22T05:41:55;9.20;99.90
8539;DHT22;4307;53.868;11.680;2024-03-22T05:44:21;9.20;99.90
8539;DHT22;4307;53.868;11.680;2024-03-22T05:46:48;9.20;99.90
8539;DHT22;4307;53.868;11.680;2024-03-22T05:49:16;9.30;99.90
8539;DHT22;4307;53.868;11.680;2024-03-22T05:51:42;9.30;99.90
8539;DHT22;4307;53.868;11.680;2024-03-22T05:54:09;9.30;99.90
8539;DHT22;4307;53.868;11.680;2024-03-22T05:56:34;9.30;99.90
8539;DHT22;4307;53.868;11.680;2024-03-22T05:59:01;9.30;99.90
8539;DHT22;4307;53.868;11.680;2024-03-22T06:01:27;9.30;99.90
8539;DHT22;4307;53.868;11.680;2024-03-22T06:03:54;9.40;99.90
8539;DHT22;4307;53.868;11.680;2024-03-22T06:06:21;9.40;99.90
8539;DHT22;4307;53.868;11.680;2024-03-22T06:08:50;9.40;99.90
8539;DHT22;4307;53.868;11.680;2024-03-22T06:11:18;9.40;99.90
8539;DHT22;4307;53.868;11.680;2024-03-22T06:13:44;9.50;99.90
8539;DHT22;4307;53.868;11.680;2024-03-22T06:16:10;9.50;99.90
8539;DHT22;4307;53.868;11.680;2024-03-22T06:18:37;9.50;99.90
8539;DHT22;4307;53.868;11.680;2024-03-22T06:21:03;9.50;99.90
8539;DHT22;4307;53.868;11.680;2024-03-22T06:23:31;9.50;99.90
8539;DHT22;4307;53.868;11.680;2024-03-22T06:25:57;9.60;99.90
8539;DHT22;4307;53.868;11.680;2024-03-22T06:28:27;9.60;99.90
8539;DHT22;4307;53.868;11.680;2024-03-22T06:30:53;9.60;99.90
8539;DHT22;4307;53.868;11.680;2024-03-22T06:33:19;9.60;99.90
8539;DHT22;4307;53.868;11.680;2024-03-22T06:35:46;9.70;99.90
8539;DHT22;4307;53.868;11.680;2024-03-22T06:38:12;9.70;99.90
8539;DHT22;4307;53.868;11.680;2024-03-22T06:40:39;9.70;99.90
8539;DHT22;4307;53.868;11.680;2024-03-22T06:43:06;9.70;99.90
8539;DHT22;4307;53.868;11.680;2024-03-22T06:45:32;9.80;99.90
8539;DHT22;4307;53.868;11.680;2024-03-22T06:47:58;9.80;99.90
8539;DHT22;4307;53.868;11.680;2024-03-22T06:50:24;9.80;99.90
8539;DHT22;4307;53.868;11.680;2024-03-22T06:52:51;9.80;99.90
8539;DHT22;4307;53.868;11.680;2024-03-22T06:55:18;9.80;99.90
8539;DHT22;4307;53.868;11.680;2024-03-22T06:57:47;9.80;99.90
8539;DHT22;4307;53.868;11.680;2024-03-22T07:00:13;9.90;99.90
8539;DHT22;4307;53.868;11.680;2024-03-22T07:02:40;9.90;99.90
8539;DHT22;4307;53.868;11.680;2024-03-22T07:05:06;9.90;99.90
8539;DHT22;4307;53.868;11.680;2024-03-22T07:07:33;10.00;99.90
8539;DHT22;4307;53.868;11.680;2024-03-22T07:09:59;10.00;99.90
8539;DHT22;4307;53.868;11.680;2024-03-22T07:12:26;10.00;99.90
8539;DHT22;4307;53.868;11.680;2024-03-22T07:14:53;10.10;99.90
8539;DHT22;4307;53.868;11.680;2024-03-22T07:17:20;10.10;99.90
8539;DHT22;4307;53.868;11.680;2024-03-22T07:19:49;10.10;99.90
8539;DHT22;4307;53.868;11.680;2024-03-22T07:22:16;10.20;99.90
8539;DHT22;4307;53.868;11.680;2024-03-22T07:24:42;10.20;99.90
8539;DHT22;4307;53.868;11.680;2024-03-22T07:27:08;10.30;99.90
8539;DHT22;4307;53.868;11.680;2024-03-22T07:29:34;10.30;99.90
8539;DHT22;4307;53.868;11.680;2024-03-22T07:32:02;10.40;99.90
8539;DHT22;4307;53.868;11.680;2024-03-22T07:34:29;10.40;99.90
8539;DHT22;4307;53.868;11.680;2024-03-22T07:36:55;10.50;99.90
8539;DHT22;4307;53.868;11.680;2024-03-22T07:39:21;10.50;99.90
8539;DHT22;4307;53.868;11.680;2024-03-22T07:41:47;10.60;99.90
8539;DHT22;4307;53.868;11.680;2024-03-22T07:44:14;10.60;99.90
8539;DHT22;4307;53.868;11.680;2024-03-22T07:46:40;10.70;99.90
8539;DHT22;4307;53.868;11.680;2024-03-22T07:49:07;10.80;99.90
8539;DHT22;4307;53.868;11.680;2024-03-22T07:51:33;10.80;99.90
8539;DHT22;4307;53.868;11.680;2024-03-22T07:54:01;10.90;99.90
8539;DHT22;4307;53.868;11.680;2024-03-22T07:56:27;10.90;99.90
8539;DHT22;4307;53.868;11.680;2024-03-22T07:58:54;11.00;99.90
8539;DHT22;4307;53.868;11.680;2024-03-22T08:01:21;11.00;99.90
8539;DHT22;4307;53.868;11.680;2024-03-22T08:03:47;11.00;99.90
8539;DHT22;4307;53.868;11.680;2024-03-22T08:06:15;11.10;99.90
8539;DHT22;4307;53.868;11.680;2024-03-22T08:08:41;11.10;99.90
8539;DHT22;4307;53.868;11.680;2024-03-22T08:11:07;11.10;99.90
8539;DHT22;4307;53.868;11.680;2024-03-22T08:13:34;11.10;99.90
8539;DHT22;4307;53.868;11.680;2024-03-22T08:16:00;11.10;99.90
8539;DHT22;4307;53.868;11.680;2024-03-22T08:18:27;11.10;99.90
8539;DHT22;4307;53.868;11.680;2024-03-22T08:20:52;11.10;99.90
8539;DHT22;4307;53.868;11.680;2024-03-22T08:23:21;11.20;99.90
8539;DHT22;4307;53.868;11.680;2024-03-22T08:25:48;11.20;99.90
8539;DHT22;4307;53.868;11.680;2024-03-22T08:28:14;11.20;99.90
8539;DHT22;4307;53.868;11.680;2024-03-22T08:30:41;11.30;99.90
8539;DHT22;4307;53.868;11.680;2024-03-22T08:33:08;11.30;99.90
8539;DHT22;4307;53.868;11.680;2024-03-22T08:35:34;11.30;99.90
8539;DHT22;4307;53.868;11.680;2024-03-22T08:38:01;11.30;99.90
8539;DHT22;4307;53.868;11.680;2024-03-22T08:40:28;11.30;99.90
8539;DHT22;4307;53.868;11.680;2024-03-22T08:42:54;11.30;99.90
8539;DHT22;4307;53.868;11.680;2024-03-22T08:45:20;11.40;99.90
8539;DHT22;4307;53.868;11.680;2024-03-22T08:47:46;11.40;99.90
8539;DHT22;4307;53.868;11.680;2024-03-22T08:50:13;11.40;99.90
8539;DHT22;4307;53.868;11.680;2024-03-22T08:52:40;11.50;99.90
8539;DHT22;4307;53.868;11.680;2024-03-22T08:55:06;11.60;99.90
8539;DHT22;4307;53.868;11.680;2024-03-22T08:57:34;11.60;99.90
8539;DHT22;4307;53.868;11.680;2024-03-22T08:59:59;11.60;99.90
8539;DHT22;4307;53.868;11.680;2024-03-22T09:02:26;11.60;99.90
8539;DHT22;4307;53.868;11.680;2024-03-22T09:04:52;11.60;99.90
8539;DHT22;4307;53.868;11.680;2024-03-22T09:07:19;11.70;99.90
8539;DHT22;4307;53.868;11.680;2024-03-22T09:09:45;11.70;99.90
8539;DHT22;4307;53.868;11.680;2024-03-22T09:12:12;11.70;99.90
8539;DHT22;4307;53.868;11.680;2024-03-22T09:14:39;11.70;99.90
8539;DHT22;4307;53.868;11.680;2024-03-22T09:17:05;11.70;99.90
8539;DHT22;4307;53.868;11.680;2024-03-22T09:19:31;11.70;99.90
8539;DHT22;4307;53.868;11.680;2024-03-22T09:21:58;11.70;99.90
8539;DHT22;4307;53.868;11.680;2024-03-22T09:24:23;11.70;99.90
8539;DHT22;4307;53.868;11.680;2024-03-22T09:26:50;11.70;99.90
8539;DHT22;4307;53.868;11.680;2024-03-22T09:29:16;11.70;99.90
8539;DHT22;4307;53.868;11.680;2024-03-22T09:31:44;11.80;99.90
8539;DHT22;4307;53.868;11.680;2024-03-22T09:34:12;11.80;99.90
8539;DHT22;4307;53.868;11.680;2024-03-22T09:36:41;11.80;99.90
8539;DHT22;4307;53.868;11.680;2024-03-22T09:39:08;11.80;99.90
8539;DHT22;4307;53.868;11.680;2024-03-22T09:41:41;11.80;99.90
8539;DHT22;4307;53.868;11.680;2024-03-22T09:44:11;11.80;99.90
8539;DHT22;4307;53.868;11.680;2024-03-22T09:46:44;11.80;99.90
8539;DHT22;4307;53.868;11.680;2024-03-22T09:49:10;11.80;99.90
8539;DHT22;4307;53.868;11.680;2024-03-22T09:51:37;11.90;99.90
8539;DHT22;4307;53.868;11.680;2024-03-22T09:54:03;11.80;99.90
8539;DHT22;4307;53.868;11.680;2024-03-22T09:56:31;11.90;99.90
8539;DHT22;4307;53.868;11.680;2024-03-22T09:58:57;11.90;99.90
8539;DHT22;4307;53.868;11.680;2024-03-22T10:01:24;11.90;99.90
8539;DHT22;4307;53.868;11.680;2024-03-22T10:03:52;11.90;99.90
8539;DHT22;4307;53.868;11.680;2024-03-22T10:06:20;11.90;99.90
8539;DHT22;4307;53.868;11.680;2024-03-22T10:08:46;12.00;99.90
8539;DHT22;4307;53.868;11.680;2024-03-22T10:11:13;12.00;99.90
8539;DHT22;4307;53.868;11.680;2024-03-22T10:13:38;12.00;99.90
8539;DHT22;4307;53.868;11.680;2024-03-22T10:16:06;12.10;99.90
8539;DHT22;4307;53.868;11.680;2024-03-22T10:18:33;12.10;99.90
8539;DHT22;4307;53.868;11.680;2024-03-22T10:21:03;12.10;99.90
8539;DHT22;4307;53.868;11.680;2024-03-22T10:23:29;12.10;99.90
8539;DHT22;4307;53.868;11.680;2024-03-22T10:25:56;12.10;99.90
8539;DHT22;4307;53.868;11.680;2024-03-22T10:28:23;12.10;99.90
8539;DHT22;4307;53.868;11.680;2024-03-22T10:30:51;12.10;99.90
8539;DHT22;4307;53.868;11.680;2024-03-22T10:33:18;12.00;99.90
8539;DHT22;4307;53.868;11.680;2024-03-22T10:35:46;11.90;99.90
8539;DHT22;4307;53.868;11.680;2024-03-22T10:38:13;11.90;99.90
8539;DHT22;4307;53.868;11.680;2024-03-22T10:40:44;11.80;99.90
8539;DHT22;4307;53.868;11.680;2024-03-22T10:43:10;11.80;99.90
8539;DHT22;4307;53.868;11.680;2024-03-22T10:45:38;11.70;99.90
8539;DHT22;4307;53.868;11.680;2024-03-22T10:48:08;11.70;99.90
8539;DHT22;4307;53.868;11.680;2024-03-22T10:50:38;11.60;99.90
8539;DHT22;4307;53.868;11.680;2024-03-22T10:53:07;11.60;99.90
8539;DHT22;4307;53.868;11.680;2024-03-22T10:55:41;11.60;99.90
8539;DHT22;4307;53.868;11.680;2024-03-22T10:58:08;11.60;99.90
8539;DHT22;4307;53.868;11.680;2024-03-22T11:00:42;11.70;99.90
8539;DHT22;4307;53.868;11.680;2024-03-22T11:03:08;11.70;99.90
8539;DHT22;4307;53.868;11.680;2024-03-22T11:05:44;11.70;99.90
8539;DHT22;4307;53.868;11.680;2024-03-22T11:08:10;11.70;99.90
8539;DHT22;4307;53.868;11.680;2024-03-22T11:10:38;11.80;99.90
8539;DHT22;4307;53.868;11.680;2024-03-22T11:13:05;11.80;99.90
8539;DHT22;4307;53.868;11.680;2024-03-22T11:15:33;11.90;99.90
8539;DHT22;4307;53.868;11.680;2024-03-22T11:17:59;11.90;99.90
8539;DHT22;4307;53.868;11.680;2024-03-22T11:20:27;11.90;99.90
8539;DHT22;4307;53.868;11.680;2024-03-22T11:22:53;11.90;99.90
8539;DHT22;4307;53.868;11.680;2024-03-22T11:25:19;12.00;99.90
8539;DHT22;4307;53.868;11.680;2024-03-22T11:27:47;12.00;99.90
8539;DHT22;4307;53.868;11.680;2024-03-22T11:30:15;12.00;99.90
8539;DHT22;4307;53.868;11.680;2024-03-22T11:32:40;12.00;99.90
8539;DHT22;4307;53.868;11.680;2024-03-22T11:35:10;12.00;99.90
8539;DHT22;4307;53.868;11.680;2024-03-22T11:37:37;12.00;99.90
8539;DHT22;4307;53.868;11.680;2024-03-22T11:40:05;12.10;99.90
8539;DHT22;4307;53.868;11.680;2024-03-22T11:42:32;12.10;99.90
8539;DHT22;4307;53.868;11.680;2024-03-22T11:45:01;12.20;99.90
8539;DHT22;4307;53.868;11.680;2024-03-22T11:47:27;12.30;99.90
8539;DHT22;4307;53.868;11.680;2024-03-22T11:49:55;12.30;99.90
8539;DHT22;4307;53.868;11.680;2024-03-22T11:52:24;12.40;99.90
8539;DHT22;4307;53.868;11.680;2024-03-22T11:54:51;12.50;99.90
8539;DHT22;4307;53.868;11.680;2024-03-22T11:57:18;12.60;99.90
8539;DHT22;4307;53.868;11.680;2024-03-22T11:59:44;12.70;99.90
8539;DHT22;4307;53.868;11.680;2024-03-22T12:02:11;12.70;99.90
8539;DHT22;4307;53.868;11.680;2024-03-22T12:04:41;12.70;99.90
8539;DHT22;4307;53.868;11.680;2024-03-22T12:07:10;12.70;99.90
8539;DHT22;4307;53.868;11.680;2024-03-22T12:09:36;12.70;99.90
8539;DHT22;4307;53.868;11.680;2024-03-22T12:12:04;12.70;99.90
8539;DHT22;4307;53.868;11.680;2024-03-22T12:14:31;12.70;99.90
8539;DHT22;4307;53.868;11.680;2024-03-22T12:16:57;12.80;99.90
8539;DHT22;4307;53.868;11.680;2024-03-22T12:19:25;12.80;99.90
8539;DHT22;4307;53.868;11.680;2024-03-22T12:21:51;12.90;99.90
8539;DHT22;4307;53.868;11.680;2024-03-22T12:24:18;12.90;99.90
8539;DHT22;4307;53.868;11.680;2024-03-22T12:26:43;12.90;99.90
8539;DHT22;4307;53.868;11.680;2024-03-22T12:29:12;12.90;99.90
8539;DHT22;4307;53.868;11.680;2024-03-22T12:31:38;12.90;99.90
8539;DHT22;4307;53.868;11.680;2024-03-22T12:34:05;12.90;99.90
8539;DHT22;4307;53.868;11.680;2024-03-22T12:36:32;12.90;99.90
8539;DHT22;4307;53.868;11.680;2024-03-22T12:38:58;12.90;99.90
8539;DHT22;4307;53.868;11.680;2024-03-22T12:41:24;12.90;99.90
8539;DHT22;4307;53.868;11.680;2024-03-22T12:43:51;12.90;99.90
8539;DHT22;4307;53.868;11.680;2024-03-22T12:46:17;13.00;99.90
8539;DHT22;4307;53.868;11.680;2024-03-22T12:48:44;13.00;99.90
8539;DHT22;4307;53.868;11.680;2024-03-22T12:51:10;13.00;99.90
8539;DHT22;4307;53.868;11.680;2024-03-22T12:53:38;13.00;99.90
8539;DHT22;4307;53.868;11.680;2024-03-22T12:56:04;13.00;99.90
8539;DHT22;4307;53.868;11.680;2024-03-22T12:58:31;13.00;99.90
8539;DHT22;4307;53.868;11.680;2024-03-22T13:00:57;13.00;99.90
8539;DHT22;4307;53.868;11.680;2024-03-22T13:03:25;13.00;99.90
8539;DHT22;4307;53.868;11.680;2024-03-22T13:05:51;13.00;99.90
8539;DHT22;4307;53.868;11.680;2024-03-22T13:08:17;12.90;99.90
8539;DHT22;4307;53.868;11.680;2024-03-22T13:10:46;12.90;99.90
8539;DHT22;4307;53.868;11.680;2024-03-22T13:13:13;12.90;99.90
8539;DHT22;4307;53.868;11.680;2024-03-22T13:15:41;12.90;99.90
8539;DHT22;4307;53.868;11.680;2024-03-22T13:18:08;12.90;99.90
8539;DHT22;4307;53.868;11.680;2024-03-22T13:20:35;12.90;99.90
8539;DHT22;4307;53.868;11.680;2024-03-22T13:23:02;12.90;99.90
8539;DHT22;4307;53.868;11.680;2024-03-22T13:25:28;12.90;99.90
8539;DHT22;4307;53.868;11.680;2024-03-22T13:27:56;12.90;99.90
8539;DHT22;4307;53.868;11.680;2024-03-22T13:30:22;12.90;99.90
8539;DHT22;4307;53.868;11.680;2024-03-22T13:32:49;12.90;99.90
8539;DHT22;4307;53.868;11.680;2024-03-22T13:35:15;12.80;99.90
8539;DHT22;4307;53.868;11.680;2024-03-22T13:37:41;12.70;99.90
8539;DHT22;4307;53.868;11.680;2024-03-22T13:40:08;12.70;99.90
8539;DHT22;4307;53.868;11.680;2024-03-22T13:42:35;12.60;99.90
8539;DHT22;4307;53.868;11.680;2024-03-22T13:45:02;12.60;99.90
8539;DHT22;4307;53.868;11.680;2024-03-22T13:47:29;12.60;99.90
8539;DHT22;4307;53.868;11.680;2024-03-22T13:49:55;12.70;99.90
8539;DHT22;4307;53.868;11.680;2024-03-22T13:52:22;12.70;99.90
8539;DHT22;4307;53.868;11.680;2024-03-22T13:54:48;12.80;99.90
8539;DHT22;4307;53.868;11.680;2024-03-22T13:57:15;12.80;99.90
8539;DHT22;4307;53.868;11.680;2024-03-22T13:59:41;12.90;99.90
8539;DHT22;4307;53.868;11.680;2024-03-22T14:02:09;13.00;99.90
8539;DHT22;4307;53.868;11.680;2024-03-22T14:04:35;13.00;99.90
8539;DHT22;4307;53.868;11.680;2024-03-22T14:07:02;13.20;99.90
8539;DHT22;4307;53.868;11.680;2024-03-22T14:09:30;13.60;99.90
8539;DHT22;4307;53.868;11.680;2024-03-22T14:11:57;14.20;99.90
8539;DHT22;4307;53.868;11.680;2024-03-22T14:14:22;14.50;99.90
8539;DHT22;4307;53.868;11.680;2024-03-22T14:16:49;14.60;99.90
8539;DHT22;4307;53.868;11.680;2024-03-22T14:19:16;14.50;99.90
8539;DHT22;4307;53.868;11.680;2024-03-22T14:21:44;14.40;99.90
8539;DHT22;4307;53.868;11.680;2024-03-22T14:24:10;14.20;99.90
8539;DHT22;4307;53.868;11.680;2024-03-22T14:26:37;14.00;99.90
8539;DHT22;4307;53.868;11.680;2024-03-22T14:29:07;13.90;99.90
8539;DHT22;4307;53.868;11.680;2024-03-22T14:31:34;13.70;99.90
8539;DHT22;4307;53.868;11.680;2024-03-22T14:34:00;13.60;99.90
8539;DHT22;4307;53.868;11.680;2024-03-22T14:36:28;13.40;99.90
8539;DHT22;4307;53.868;11.680;2024-03-22T14:38:53;13.30;99.90
8539;DHT22;4307;53.868;11.680;2024-03-22T14:41:20;13.20;99.90
8539;DHT22;4307;53.868;11.680;2024-03-22T14:43:46;13.20;99.90
8539;DHT22;4307;53.868;11.680;2024-03-22T14:46:13;13.10;99.90
8539;DHT22;4307;53.868;11.680;2024-03-22T14:48:38;13.00;99.90
8539;DHT22;4307;53.868;11.680;2024-03-22T14:51:05;13.00;99.90
8539;DHT22;4307;53.868;11.680;2024-03-22T14:53:32;12.90;99.90
8539;DHT22;4307;53.868;11.680;2024-03-22T14:56:01;12.90;99.90
8539;DHT22;4307;53.868;11.680;2024-03-22T14:58:30;12.90;99.90
8539;DHT22;4307;53.868;11.680;2024-03-22T15:00:57;12.90;99.90
8539;DHT22;4307;53.868;11.680;2024-03-22T15:03:24;13.00;99.90
8539;DHT22;4307;53.868;11.680;2024-03-22T15:05:51;12.90;99.90
8539;DHT22;4307;53.868;11.680;2024-03-22T15:08:17;12.90;99.90
8539;DHT22;4307;53.868;11.680;2024-03-22T15:10:45;12.90;99.90
8539;DHT22;4307;53.868;11.680;2024-03-22T15:13:11;12.80;99.90
8539;DHT22;4307;53.868;11.680;2024-03-22T15:15:38;12.80;99.90
8539;DHT22;4307;53.868;11.680;2024-03-22T15:18:04;12.80;99.90
8539;DHT22;4307;53.868;11.680;2024-03-22T15:20:31;12.70;99.90
8539;DHT22;4307;53.868;11.680;2024-03-22T15:22:58;12.70;99.90
8539;DHT22;4307;53.868;11.680;2024-03-22T15:25:24;12.60;99.90
8539;DHT22;4307;53.868;11.680;2024-03-22T15:27:52;12.60;99.90
8539;DHT22;4307;53.868;11.680;2024-03-22T15:30:19;12.50;99.90
8539;DHT22;4307;53.868;11.680;2024-03-22T15:32:45;12.50;99.90
8539;DHT22;4307;53.868;11.680;2024-03-22T15:35:12;12.40;99.90
8539;DHT22;4307;53.868;11.680;2024-03-22T15:37:38;12.30;99.90
8539;DHT22;4307;53.868;11.680;2024-03-22T15:40:07;12.30;99.90
8539;DHT22;4307;53.868;11.680;2024-03-22T15:42:33;12.30;99.90
8539;DHT22;4307;53.868;11.680;2024-03-22T15:45:01;12.20;99.90
8539;DHT22;4307;53.868;11.680;2024-03-22T15:47:28;12.20;99.90
8539;DHT22;4307;53.868;11.680;2024-03-22T15:49:54;12.20;99.90